Time;durP1;ratioP1;P1;durP2;ratioP2;P2;SDS_P1;SDS_P2;PMS_P1;PMS_P2;Temp;Humidity;BMP_temperature;BMP_pressure;BME280_temperature;BME280_humidity;BME280_pressure;Samples;Min_cycle;Max_cycle;Signal;HPM_P1;HPM_P2
2022/03/19 00:00:46;;;;;;;13.00;3.35;;;4.80;99.90;;;;;;5051986;28;20024;-55
2022/03/19 00:03:12;;;;;;;6.13;2.85;;;4.80;99.90;;;;;;5053213;28;20071;-52
2022/03/19 00:05:38;;;;;;;9.77;2.75;;;4.80;99.90;;;;;;5053097;28;20542;-51
2022/03/19 00:08:04;;;;;;;9.98;2.85;;;4.60;99.90;;;;;;5053086;28;20021;-52
2022/03/19 00:10:30;;;;;;;6.82;2.42;;;4.50;99.90;;;;;;5053117;28;20103;-52
2022/03/19 00:12:58;;;;;;;9.05;2.70;;;4.40;99.90;;;;;;5053430;28;20024;-51
2022/03/19 00:15:24;;;;;;;5.70;2.13;;;4.40;99.90;;;;;;5053088;28;20018;-53
2022/03/19 00:17:52;;;;;;;7.35;2.75;;;4.30;99.90;;;;;;5052949;28;20025;-52
2022/03/19 00:20:18;;;;;;;10.85;2.83;;;4.40;99.90;;;;;;5052151;28;20025;-51
2022/03/19 00:22:44;;;;;;;7.55;2.47;;;4.30;99.90;;;;;;5053263;28;20090;-53
2022/03/19 00:25:12;;;;;;;6.82;2.35;;;4.30;99.90;;;;;;5051740;28;20021;-53
2022/03/19 00:27:39;;;;;;;5.07;1.95;;;4.40;99.90;;;;;;5052747;28;20036;-52
2022/03/19 00:30:05;;;;;;;10.30;2.58;;;4.30;99.90;;;;;;5052927;28;20049;-56
2022/03/19 00:32:31;;;;;;;4.88;2.10;;;4.30;99.90;;;;;;5053191;28;20106;-54
2022/03/19 00:34:57;;;;;;;3.53;1.85;;;4.30;99.90;;;;;;5052058;28;20163;-54
2022/03/19 00:37:23;;;;;;;6.13;2.13;;;4.30;99.90;;;;;;5052855;28;20052;-52
2022/03/19 00:39:49;;;;;;;4.18;1.73;;;4.30;99.90;;;;;;5051590;28;20116;-54
2022/03/19 00:42:14;;;;;;;8.65;2.20;;;4.20;99.90;;;;;;5052751;28;20075;-52
2022/03/19 00:44:40;;;;;;;6.95;2.40;;;4.20;99.90;;;;;;5052783;28;20029;-55
2022/03/19 00:47:06;;;;;;;5.93;2.42;;;4.10;99.90;;;;;;5051554;28;20028;-54
2022/03/19 00:49:31;;;;;;;2.92;1.80;;;4.20;99.90;;;;;;5051478;28;20021;-52
2022/03/19 00:51:57;;;;;;;6.53;2.00;;;4.30;99.90;;;;;;5052311;28;20017;-53
2022/03/19 00:54:22;;;;;;;5.40;1.88;;;4.40;99.90;;;;;;5052094;28;20025;-53
2022/03/19 00:56:48;;;;;;;7.30;3.17;;;4.40;99.90;;;;;;5052572;28;20391;-54
2022/03/19 00:59:14;;;;;;;12.27;4.63;;;4.40;99.90;;;;;;5052617;28;20033;-50
2022/03/19 01:01:39;;;;;;;5.03;2.60;;;4.30;99.90;;;;;;5054418;28;20067;-55
2022/03/19 01:04:05;;;;;;;8.02;2.53;;;4.20;99.90;;;;;;5055693;28;20047;-56
2022/03/19 01:06:31;;;;;;;6.20;2.05;;;4.20;99.90;;;;;;5056408;28;20025;-53
2022/03/19 01:08:57;;;;;;;9.70;2.20;;;4.20;99.90;;;;;;5055018;28;20025;-51
2022/03/19 01:11:23;;;;;;;5.07;1.67;;;4.30;99.90;;;;;;5056171;28;20063;-49
2022/03/19 01:13:52;;;;;;;5.10;2.33;;;4.30;99.90;;;;;;5056415;28;20085;-49
2022/03/19 01:16:19;;;;;;;4.78;2.53;;;4.10;99.90;;;;;;5056324;28;20045;-49
2022/03/19 01:18:51;;;;;;;6.38;3.05;;;4.10;99.90;;;;;;5054726;28;20116;-49
2022/03/19 01:21:18;;;;;;;8.35;2.28;;;4.00;99.90;;;;;;5055031;28;20021;-50
2022/03/19 01:23:44;;;;;;;6.68;2.25;;;3.90;99.90;;;;;;5055949;28;20066;-51
2022/03/19 01:26:10;;;;;;;8.32;2.47;;;3.90;99.90;;;;;;5055901;28;20040;-50
2022/03/19 01:28:36;;;;;;;3.20;1.90;;;3.80;99.90;;;;;;5054430;28;20120;-51
2022/03/19 01:31:02;;;;;;;7.03;2.33;;;3.70;99.90;;;;;;5056123;28;20077;-51
2022/03/19 01:33:27;;;;;;;4.40;1.65;;;3.70;99.90;;;;;;5056093;28;20032;-51
2022/03/19 01:35:53;;;;;;;7.57;2.30;;;3.70;99.90;;;;;;5054379;28;20029;-50
2022/03/19 01:38:19;;;;;;;3.72;1.70;;;3.70;99.90;;;;;;5055284;28;20024;-52
2022/03/19 01:40:44;;;;;;;5.55;2.08;;;3.60;99.90;;;;;;5055558;28;20135;-50
2022/03/19 01:43:10;;;;;;;8.35;2.25;;;3.60;99.90;;;;;;5054327;28;20488;-49
2022/03/19 01:45:36;;;;;;;4.28;2.30;;;3.60;99.90;;;;;;5054561;28;20029;-50
2022/03/19 01:48:02;;;;;;;5.95;2.05;;;3.60;99.90;;;;;;5055823;28;20078;-50
2022/03/19 01:50:28;;;;;;;7.68;1.98;;;3.50;99.90;;;;;;5055556;28;20025;-53
2022/03/19 01:52:55;;;;;;;4.15;1.77;;;3.60;99.90;;;;;;5054146;28;20017;-53
2022/03/19 01:55:23;;;;;;;4.60;1.90;;;3.60;99.90;;;;;;5054421;28;20021;-51
2022/03/19 01:57:51;;;;;;;4.93;2.15;;;3.60;99.90;;;;;;5054334;28;20020;-51
2022/03/19 02:00:19;;;;;;;4.00;2.05;;;3.50;99.90;;;;;;5055601;28;20025;-53
2022/03/19 02:02:48;;;;;;;4.35;2.03;;;3.50;99.90;;;;;;5055278;28;20040;-53
2022/03/19 02:05:19;;;;;;;4.85;2.22;;;3.40;99.90;;;;;;5055759;28;20033;-56
2022/03/19 02:07:46;;;;;;;2.67;2.00;;;3.40;99.90;;;;;;5053949;28;20029;-51
2022/03/19 02:10:13;;;;;;;5.45;1.63;;;3.40;99.90;;;;;;5055025;28;20025;-54
2022/03/19 02:12:40;;;;;;;5.35;1.73;;;3.30;99.90;;;;;;5052926;28;20048;-53
2022/03/19 02:15:06;;;;;;;3.17;1.60;;;3.30;99.90;;;;;;5054981;28;20024;-52
2022/03/19 02:17:32;;;;;;;3.10;1.90;;;3.30;99.90;;;;;;5053647;28;20049;-53
2022/03/19 02:19:58;;;;;;;6.38;2.20;;;3.30;99.90;;;;;;5054924;28;20052;-54
2022/03/19 02:22:26;;;;;;;5.95;2.55;;;3.20;99.90;;;;;;5054830;28;20064;-53
2022/03/19 02:27:37;;;;;;;3.20;1.25;;;3.20;99.90;;;;;;5054841;28;20032;-54
2022/03/19 02:30:05;;;;;;;6.40;1.95;;;3.20;99.90;;;;;;5054604;28;20045;-52
2022/03/19 02:32:31;;;;;;;3.10;2.00;;;3.10;99.90;;;;;;5053742;28;20108;-54
2022/03/19 02:34:58;;;;;;;2.88;1.33;;;3.00;99.90;;;;;;5053416;28;20027;-54
2022/03/19 02:37:24;;;;;;;5.38;1.67;;;3.00;99.90;;;;;;5054821;28;20032;-49
2022/03/19 02:39:49;;;;;;;4.97;2.13;;;3.10;99.90;;;;;;5053533;28;20021;-49
2022/03/19 02:42:17;;;;;;;3.55;1.88;;;3.10;99.90;;;;;;5054420;28;20056;-51
2022/03/19 02:44:43;;;;;;;7.93;1.80;;;3.10;99.90;;;;;;5053354;28;20033;-50
2022/03/19 02:47:09;;;;;;;5.68;1.70;;;3.00;99.90;;;;;;5053097;28;20035;-51
2022/03/19 02:49:35;;;;;;;4.25;1.90;;;3.00;99.90;;;;;;5054175;28;20476;-49
2022/03/19 02:52:02;;;;;;;5.45;1.90;;;2.90;99.90;;;;;;5054328;28;20472;-49
2022/03/19 02:54:30;;;;;;;3.15;2.20;;;2.80;99.90;;;;;;5052971;28;20563;-52
2022/03/19 02:56:57;;;;;;;4.13;2.00;;;2.80;99.90;;;;;;5054196;28;20025;-49
2022/03/19 02:59:27;;;;;;;5.63;1.70;;;2.80;99.90;;;;;;5053188;28;20067;-49
2022/03/19 03:01:54;;;;;;;5.40;2.17;;;2.80;99.90;;;;;;5054051;28;20024;-49
2022/03/19 03:04:20;;;;;;;5.05;2.50;;;2.80;99.90;;;;;;5052755;28;20119;-49
2022/03/19 03:06:48;;;;;;;2.45;1.75;;;2.90;99.90;;;;;;5053872;28;20104;-49
2022/03/19 03:09:17;;;;;;;5.75;1.75;;;2.80;99.90;;;;;;5054158;28;20412;-54
2022/03/19 03:11:43;;;;;;;5.50;1.63;;;2.80;99.90;;;;;;5052673;28;20078;-54
2022/03/19 03:14:09;;;;;;;4.50;1.48;;;2.80;99.90;;;;;;5052549;28;20025;-49
2022/03/19 03:16:35;;;;;;;3.20;1.83;;;2.70;99.90;;;;;;5053767;28;20043;-54
2022/03/19 03:19:03;;;;;;;4.07;2.10;;;2.70;99.90;;;;;;5052567;28;20115;-54
2022/03/19 03:21:29;;;;;;;10.48;2.50;;;2.80;99.90;;;;;;5053741;28;20422;-54
2022/03/19 03:23:55;;;;;;;5.20;2.05;;;2.80;99.90;;;;;;5053651;28;20117;-51
2022/03/19 03:26:21;;;;;;;5.47;2.40;;;2.70;99.90;;;;;;5052347;28;20475;-51
2022/03/19 03:28:47;;;;;;;6.68;1.90;;;2.60;99.90;;;;;;5053329;28;20033;-53
2022/03/19 03:31:12;;;;;;;3.95;1.60;;;2.60;99.90;;;;;;5053629;28;20032;-51
2022/03/19 03:33:38;;;;;;;4.68;1.65;;;2.70;99.90;;;;;;5053232;28;20028;-50
2022/03/19 03:36:04;;;;;;;4.63;1.90;;;2.70;99.90;;;;;;5053805;28;20020;-52
2022/03/19 03:38:30;;;;;;;4.35;2.28;;;2.60;99.90;;;;;;5052269;28;20025;-54
2022/03/19 03:40:56;;;;;;;5.68;2.00;;;2.60;99.90;;;;;;5053746;28;20021;-53
2022/03/19 03:43:22;;;;;;;7.88;2.15;;;2.60;99.90;;;;;;5053421;28;20024;-50
2022/03/19 03:45:48;;;;;;;3.63;2.35;;;2.60;99.90;;;;;;5052177;28;20033;-49
2022/03/19 03:48:14;;;;;;;2.72;1.88;;;2.60;99.90;;;;;;5052495;28;20120;-51
2022/03/19 03:50:40;;;;;;;8.18;2.30;;;2.50;99.90;;;;;;5052073;28;20116;-51
2022/03/19 03:53:07;;;;;;;7.53;2.67;;;2.50;99.90;;;;;;5053365;28;20047;-50
2022/03/19 03:55:34;;;;;;;5.15;3.03;;;2.50;99.90;;;;;;5053535;28;20023;-53
2022/03/19 03:58:00;;;;;;;3.75;2.08;;;2.50;99.90;;;;;;5051920;28;20028;-52
2022/03/19 04:00:27;;;;;;;8.13;2.33;;;2.40;99.90;;;;;;5053173;28;20079;-55
2022/03/19 04:02:53;;;;;;;4.55;2.28;;;2.40;99.90;;;;;;5053485;28;20120;-54
2022/03/19 04:05:19;;;;;;;5.20;2.60;;;2.40;99.90;;;;;;5053180;28;20021;-54
2022/03/19 04:07:45;;;;;;;5.35;2.35;;;2.40;99.90;;;;;;5053188;28;20033;-55
2022/03/19 04:10:11;;;;;;;5.50;2.17;;;2.50;99.90;;;;;;5053149;28;20032;-54
2022/03/19 04:12:37;;;;;;;4.55;2.33;;;2.50;99.90;;;;;;5051887;28;20021;-49
2022/03/19 04:15:05;;;;;;;5.40;2.13;;;2.50;99.90;;;;;;5053046;28;20028;-52
2022/03/19 04:17:31;;;;;;;5.82;2.30;;;2.40;99.90;;;;;;5053009;28;20029;-52
2022/03/19 04:19:56;;;;;;;6.18;2.10;;;2.40;99.90;;;;;;5051749;28;20021;-51
2022/03/19 04:22:22;;;;;;;7.63;2.15;;;2.40;99.90;;;;;;5051790;28;20040;-55
2022/03/19 04:24:47;;;;;;;7.65;2.55;;;2.40;99.90;;;;;;5051690;28;20057;-53
2022/03/19 04:27:14;;;;;;;7.78;2.58;;;2.40;99.90;;;;;;5053157;28;20100;-53
2022/03/19 04:29:40;;;;;;;2.75;1.63;;;2.40;99.90;;;;;;5052918;28;20048;-53
2022/03/19 04:32:07;;;;;;;6.70;3.05;;;2.40;99.90;;;;;;5052943;28;20075;-54
2022/03/19 04:34:33;;;;;;;4.00;2.13;;;2.30;99.90;;;;;;5052870;28;20026;-53
2022/03/19 04:36:59;;;;;;;5.53;2.53;;;2.40;99.90;;;;;;5055122;28;20024;-54
2022/03/19 04:39:24;;;;;;;5.32;2.05;;;2.30;99.90;;;;;;5056991;28;20091;-55
2022/03/19 04:41:50;;;;;;;6.93;2.33;;;2.30;99.90;;;;;;5055832;28;20025;-53
2022/03/19 04:44:16;;;;;;;7.43;2.25;;;2.30;99.90;;;;;;5055398;28;20025;-56
2022/03/19 04:46:42;;;;;;;10.55;2.97;;;2.40;99.90;;;;;;5055368;28;20036;-52
2022/03/19 04:49:08;;;;;;;6.53;2.42;;;2.40;99.90;;;;;;5056850;28;20025;-55
2022/03/19 04:51:37;;;;;;;6.28;2.90;;;2.70;99.90;;;;;;5056636;28;20025;-52
2022/03/19 04:54:03;;;;;;;6.25;2.88;;;3.00;99.90;;;;;;5055284;28;20021;-53
2022/03/19 04:56:30;;;;;;;7.35;3.20;;;3.00;99.90;;;;;;5056443;28;20025;-56
2022/03/19 04:58:57;;;;;;;7.20;2.80;;;2.90;99.90;;;;;;5055140;28;20128;-57
2022/03/19 05:01:30;;;;;;;13.27;2.78;;;2.90;99.90;;;;;;5056420;28;20035;-56
2022/03/19 05:03:56;;;;;;;9.68;3.00;;;2.90;99.90;;;;;;5056057;28;20029;-55
2022/03/19 05:06:21;;;;;;;11.90;4.40;;;2.70;99.90;;;;;;5054967;28;20028;-51
2022/03/19 05:11:12;;;;;;;7.15;2.15;;;2.60;99.90;;;;;;5056186;28;20048;-50
2022/03/19 05:11:35;;;;;;;14.15;3.60;;;2.60;99.90;;;;;;5056105;28;20067;-54
2022/03/19 05:14:01;;;;;;;10.30;4.30;;;2.60;99.90;;;;;;5056777;28;20049;-54
2022/03/19 05:16:27;;;;;;;7.55;2.65;;;2.50;99.90;;;;;;5056824;28;20021;-54
2022/03/19 05:18:52;;;;;;;5.63;2.97;;;2.60;99.90;;;;;;5056089;28;20029;-51
2022/03/19 05:21:18;;;;;;;8.32;3.20;;;2.60;99.90;;;;;;5057274;28;20033;-56
2022/03/19 05:23:47;;;;;;;5.50;2.90;;;2.90;99.90;;;;;;5054807;28;20094;-54
2022/03/19 05:26:13;;;;;;;11.15;2.80;;;2.80;99.90;;;;;;5055905;28;20017;-50
2022/03/19 05:28:39;;;;;;;10.77;3.08;;;2.70;99.90;;;;;;5054390;28;20029;-51
2022/03/19 05:31:08;;;;;;;8.90;3.72;;;2.70;99.90;;;;;;5055861;28;20381;-51
2022/03/19 05:36:17;;;;;;;8.43;2.85;;;2.60;99.90;;;;;;5056020;28;20502;-52
2022/03/19 05:38:43;;;;;;;7.72;3.22;;;2.70;99.90;;;;;;5054425;28;20021;-52
2022/03/19 05:41:09;;;;;;;10.10;2.90;;;2.70;99.90;;;;;;5055597;28;20021;-53
2022/03/19 05:43:35;;;;;;;8.77;3.53;;;2.80;99.90;;;;;;5055835;28;20099;-50
2022/03/19 05:46:01;;;;;;;6.78;3.08;;;2.80;99.90;;;;;;5055780;28;20523;-50
2022/03/19 05:48:26;;;;;;;8.68;3.17;;;2.80;99.90;;;;;;5053071;28;20021;-49
2022/03/19 05:50:53;;;;;;;7.65;3.08;;;2.70;99.90;;;;;;5055267;28;20032;-51
2022/03/19 05:53:18;;;;;;;5.63;3.03;;;2.70;99.90;;;;;;5055810;28;20026;-51
2022/03/19 05:55:44;;;;;;;9.77;3.45;;;2.80;99.90;;;;;;5054019;28;20028;-56
2022/03/19 05:58:09;;;;;;;10.60;3.70;;;2.80;99.90;;;;;;5055305;28;20047;-54
2022/03/19 06:00:35;;;;;;;6.72;2.70;;;2.90;99.90;;;;;;5055327;28;20035;-53
2022/03/19 06:03:01;;;;;;;8.43;3.17;;;3.00;99.90;;;;;;5055290;28;20052;-55
2022/03/19 06:05:26;;;;;;;9.20;3.70;;;3.20;99.90;;;;;;5054123;28;20029;-55
2022/03/19 06:07:52;;;;;;;8.75;3.78;;;3.20;99.90;;;;;;5054218;28;20028;-50
2022/03/19 06:10:18;;;;;;;11.23;4.03;;;3.50;99.90;;;;;;5053764;28;20025;-49
2022/03/19 06:12:46;;;;;;;14.68;4.72;;;3.80;99.90;;;;;;5054147;28;20093;-52
2022/03/19 06:15:11;;;;;;;13.63;4.57;;;4.40;99.90;;;;;;5055119;28;20032;-50
2022/03/19 06:17:37;;;;;;;15.55;4.30;;;5.10;99.90;;;;;;5053948;28;20401;-52
2022/03/19 06:20:03;;;;;;;7.40;3.35;;;5.80;99.90;;;;;;5054976;28;20036;-50
2022/03/19 06:22:29;;;;;;;8.68;4.20;;;6.60;99.90;;;;;;5055275;28;20084;-50
2022/03/19 06:24:54;;;;;;;10.88;4.75;;;7.50;99.90;;;;;;5054517;28;20118;-51
2022/03/19 06:27:20;;;;;;;10.70;3.75;;;8.20;99.90;;;;;;5053715;28;20032;-51
2022/03/19 06:29:46;;;;;;;6.75;3.20;;;8.70;99.90;;;;;;5053516;28;20029;-53
2022/03/19 06:32:11;;;;;;;6.28;2.83;;;9.20;99.90;;;;;;5053472;28;20021;-50
2022/03/19 06:34:37;;;;;;;11.30;3.60;;;9.50;99.90;;;;;;5055208;28;20024;-50
2022/03/19 06:37:20;;;;;;;7.53;3.38;;;9.90;99.90;;;;;;5053301;28;20066;-50
2022/03/19 06:40:06;;;;;;;7.78;3.55;;;10.60;99.90;;;;;;5054509;28;20024;-51
2022/03/19 06:42:33;;;;;;;8.68;3.17;;;11.50;99.90;;;;;;5053322;28;20108;-50
2022/03/19 06:44:59;;;;;;;6.70;3.53;;;12.20;99.90;;;;;;5054083;28;20117;-51
2022/03/19 06:47:25;;;;;;;8.70;3.78;;;12.70;99.90;;;;;;5053517;28;20119;-51
2022/03/19 06:49:51;;;;;;;13.63;4.90;;;13.30;99.90;;;;;;5054297;28;20411;-50
2022/03/19 06:52:17;;;;;;;8.38;4.28;;;14.00;99.90;;;;;;5054407;28;20052;-47
2022/03/19 06:54:42;;;;;;;10.70;3.80;;;14.40;99.90;;;;;;5053063;28;20049;-47
2022/03/19 06:57:08;;;;;;;9.40;4.28;;;15.00;99.90;;;;;;5052980;28;20021;-52
2022/03/19 06:59:33;;;;;;;8.15;4.72;;;15.10;99.90;;;;;;5052603;28;20033;-52
2022/03/19 07:02:00;;;;;;;13.82;5.80;;;15.70;99.90;;;;;;5052969;28;20059;-53
2022/03/19 07:04:26;;;;;;;9.20;4.18;;;16.30;99.90;;;;;;5052844;28;20025;-51
2022/03/19 07:06:51;;;;;;;12.63;5.88;;;16.90;99.50;;;;;;5054429;28;20059;-51
2022/03/19 07:09:17;;;;;;;12.52;5.65;;;17.00;97.90;;;;;;5052689;28;20025;-53
2022/03/19 07:11:42;;;;;;;18.42;8.73;;;17.40;98.30;;;;;;5054537;28;20025;-53
2022/03/19 07:14:08;;;;;;;12.27;6.05;;;17.60;95.80;;;;;;5053977;28;20044;-51
2022/03/19 07:16:34;;;;;;;9.50;5.57;;;17.30;95.40;;;;;;5054134;28;20051;-55
2022/03/19 07:18:59;;;;;;;8.90;4.28;;;17.80;94.40;;;;;;5052936;28;20021;-56
2022/03/19 07:21:25;;;;;;;10.13;5.15;;;18.10;94.70;;;;;;5053062;28;20028;-51
2022/03/19 07:23:51;;;;;;;14.00;5.10;;;18.40;92.80;;;;;;5054007;28;20147;-50
2022/03/19 07:26:16;;;;;;;9.75;4.72;;;18.10;92.10;;;;;;5053593;28;20028;-51
2022/03/19 07:28:43;;;;;;;11.52;5.32;;;17.20;92.00;;;;;;5052236;28;20033;-54
2022/03/19 07:31:09;;;;;;;11.27;5.00;;;16.90;93.00;;;;;;5052446;28;20033;-56
2022/03/19 07:33:34;;;;;;;11.10;5.03;;;17.20;93.30;;;;;;5053493;28;20017;-57
2022/03/19 07:36:06;;;;;;;17.60;5.53;;;16.80;92.60;;;;;;5053360;28;20108;-56
2022/03/19 07:38:32;;;;;;;12.55;4.82;;;16.80;92.90;;;;;;5053537;28;20036;-52
2022/03/19 07:43:43;;;;;;;12.57;5.72;;;16.10;93.50;;;;;;5053722;28;20055;-50
2022/03/19 07:46:10;;;;;;;10.43;5.60;;;16.10;93.80;;;;;;5052325;28;20099;-52
2022/03/19 07:48:35;;;;;;;14.30;5.68;;;16.20;93.50;;;;;;5053398;28;20177;-52
2022/03/19 07:51:01;;;;;;;13.13;5.50;;;16.10;93.50;;;;;;5052034;28;20021;-52
2022/03/19 07:53:26;;;;;;;13.65;5.15;;;16.30;93.70;;;;;;5053365;28;20036;-52
2022/03/19 07:55:53;;;;;;;10.48;5.13;;;16.20;93.10;;;;;;5051903;28;20025;-50
2022/03/19 07:58:19;;;;;;;12.02;5.00;;;16.30;93.30;;;;;;5051979;28;20028;-50
2022/03/19 08:00:45;;;;;;;16.95;5.28;;;16.20;93.10;;;;;;5052434;28;20029;-52
2022/03/19 08:03:11;;;;;;;8.77;4.82;;;16.40;94.20;;;;;;5053301;28;20471;-50
2022/03/19 08:05:39;;;;;;;10.27;4.97;;;17.00;92.90;;;;;;5051955;28;20163;-55
2022/03/19 08:08:06;;;;;;;11.00;5.13;;;17.10;92.20;;;;;;5053161;28;20032;-48
2022/03/19 08:10:31;;;;;;;10.68;5.43;;;16.90;92.00;;;;;;5052640;28;20036;-53
2022/03/19 08:13:03;;;;;;;7.85;4.53;;;16.50;91.80;;;;;;5056446;28;20017;-57
2022/03/19 08:15:29;;;;;;;11.20;4.65;;;16.00;92.20;;;;;;5056072;28;20021;-49
2022/03/19 08:17:55;;;;;;;10.75;4.50;;;16.30;93.00;;;;;;5055956;28;20028;-51
2022/03/19 08:20:20;;;;;;;10.20;4.80;;;16.50;92.20;;;;;;5057295;28;20033;-55
2022/03/19 08:22:47;;;;;;;11.98;5.70;;;16.60;92.00;;;;;;5057059;28;20112;-52
2022/03/19 08:25:13;;;;;;;9.55;4.55;;;16.40;91.70;;;;;;5057034;28;20021;-49
2022/03/19 08:27:38;;;;;;;11.27;4.30;;;16.60;91.90;;;;;;5056855;28;20033;-51
2022/03/19 08:30:05;;;;;;;11.82;4.32;;;17.10;91.50;;;;;;5056664;28;20075;-49
2022/03/19 08:32:31;;;;;;;14.20;4.32;;;17.50;90.60;;;;;;5057207;28;20487;-52
2022/03/19 08:34:57;;;;;;;11.30;4.63;;;17.70;90.10;;;;;;5055661;28;20040;-55
2022/03/19 08:37:23;;;;;;;9.02;3.83;;;17.60;89.40;;;;;;5056172;28;20021;-49
2022/03/19 08:42:34;;;;;;;8.88;3.65;;;17.70;90.50;;;;;;5057311;28;20094;-53
2022/03/19 08:44:59;;;;;;;12.15;4.35;;;18.10;87.90;;;;;;5055427;28;20052;-54
2022/03/19 08:47:25;;;;;;;7.45;3.83;;;18.10;89.20;;;;;;5056806;28;20021;-56
2022/03/19 08:49:50;;;;;;;7.35;3.78;;;18.20;88.40;;;;;;5055306;28;20063;-53
2022/03/19 08:52:16;;;;;;;9.77;3.47;;;17.90;86.20;;;;;;5055354;28;20033;-54
2022/03/19 08:54:42;;;;;;;9.32;3.72;;;17.10;87.50;;;;;;5056965;28;20052;-50
2022/03/19 08:57:10;;;;;;;8.43;3.20;;;17.00;88.60;;;;;;5056528;28;20146;-52
2022/03/19 08:59:36;;;;;;;5.45;3.72;;;17.70;88.20;;;;;;5056767;28;20017;-56
2022/03/19 09:02:01;;;;;;;6.55;3.08;;;18.40;86.40;;;;;;5055537;28;20032;-56
2022/03/19 09:04:27;;;;;;;7.43;3.63;;;18.60;83.80;;;;;;5055178;28;20098;-56
2022/03/19 09:06:52;;;;;;;8.25;3.15;;;18.30;84.00;;;;;;5056384;28;20514;-55
2022/03/19 09:09:19;;;;;;;9.20;3.45;;;17.80;83.40;;;;;;5055754;28;20021;-54
2022/03/19 09:11:45;;;;;;;11.25;3.38;;;17.50;84.60;;;;;;5055325;28;20029;-49
2022/03/19 09:14:12;;;;;;;9.20;3.35;;;17.50;84.80;;;;;;5056260;28;20387;-55
2022/03/19 09:16:37;;;;;;;7.20;2.97;;;16.70;84.10;;;;;;5056128;28;20067;-53
2022/03/19 09:19:04;;;;;;;7.05;2.70;;;16.60;83.40;;;;;;5056453;28;20021;-51
2022/03/19 09:21:29;;;;;;;13.32;3.38;;;16.60;82.90;;;;;;5054672;28;20021;-54
2022/03/19 09:23:58;;;;;;;7.68;3.20;;;16.70;82.30;;;;;;5054710;28;20108;-53
2022/03/19 09:26:24;;;;;;;4.97;3.03;;;16.80;82.10;;;;;;5055957;28;20024;-56
2022/03/19 09:28:50;;;;;;;8.20;3.28;;;17.40;80.40;;;;;;5054705;28;20036;-52
2022/03/19 09:31:16;;;;;;;10.52;3.20;;;17.50;79.10;;;;;;5056303;28;20100;-51
2022/03/19 09:33:43;;;;;;;5.07;2.58;;;17.60;79.60;;;;;;5055849;28;20453;-55
2022/03/19 09:36:08;;;;;;;8.05;2.97;;;18.20;78.90;;;;;;5056004;28;20082;-53
2022/03/19 09:38:34;;;;;;;7.68;3.45;;;18.50;76.60;;;;;;5055744;28;20108;-49
2022/03/19 09:41:00;;;;;;;6.22;2.70;;;19.00;76.00;;;;;;5055693;28;20035;-51
2022/03/19 09:43:27;;;;;;;6.80;2.88;;;19.10;73.90;;;;;;5055053;28;20126;-49
2022/03/19 09:45:53;;;;;;;7.72;3.08;;;19.30;73.50;;;;;;5054631;28;20039;-55
2022/03/19 09:48:20;;;;;;;5.72;2.63;;;19.30;72.20;;;;;;5055698;28;20032;-55
2022/03/19 09:50:49;;;;;;;5.60;2.25;;;18.80;70.80;;;;;;5055562;28;20464;-49
2022/03/19 09:53:17;;;;;;;7.68;3.22;;;17.60;73.20;;;;;;5054682;28;20031;-52
2022/03/19 09:55:43;;;;;;;6.18;2.65;;;17.90;73.60;;;;;;5055484;28;20031;-55
2022/03/19 09:58:09;;;;;;;9.15;2.97;;;17.40;71.60;;;;;;5055688;28;20020;-49
2022/03/19 10:00:36;;;;;;;9.05;2.88;;;16.70;73.30;;;;;;5055698;28;20024;-50
2022/03/19 10:03:11;;;;;;;6.30;2.92;;;16.40;75.00;;;;;;5054694;28;20035;-54
2022/03/19 10:08:43;;;;;;;6.53;3.08;;;16.80;73.40;;;;;;5055267;28;20075;-55
2022/03/19 10:11:11;;;;;;;6.10;2.25;;;16.30;73.90;;;;;;5053753;28;20033;-48
2022/03/19 10:13:45;;;;;;;3.35;2.03;;;15.10;74.30;;;;;;5055101;28;20167;-51
2022/03/19 10:16:31;;;;;;;4.80;2.08;;;15.00;73.80;;;;;;5055031;28;20391;-49
2022/03/19 10:18:59;;;;;;;6.03;1.80;;;14.10;74.80;;;;;;5053355;28;20045;-50
2022/03/19 10:21:26;;;;;;;3.08;1.63;;;14.00;73.50;;;;;;5053947;28;20027;-53
2022/03/19 10:23:52;;;;;;;6.40;1.58;;;14.00;73.60;;;;;;5054925;28;20068;-50
2022/03/19 10:26:25;;;;;;;2.97;1.33;;;13.60;69.10;;;;;;5053727;28;20021;-49
2022/03/19 10:29:05;;;;;;;5.18;1.20;;;13.50;70.50;;;;;;5054511;28;20029;-49
2022/03/19 10:31:36;;;;;;;2.63;0.95;;;13.40;68.50;;;;;;5054812;28;20341;-51
2022/03/19 10:34:03;;;;;;;2.92;1.00;;;12.90;68.70;;;;;;5054028;28;20021;-52
2022/03/19 10:36:39;;;;;;;4.10;1.23;;;12.50;68.00;;;;;;5054563;28;20025;-52
2022/03/19 10:39:17;;;;;;;2.67;1.08;;;12.20;67.90;;;;;;5054896;28;20017;-49
2022/03/19 10:41:43;;;;;;;2.28;1.13;;;12.20;70.10;;;;;;5053331;28;20025;-51
2022/03/19 10:44:10;;;;;;;2.45;1.15;;;12.10;70.00;;;;;;5054562;28;20047;-48
2022/03/19 10:46:37;;;;;;;2.95;1.02;;;12.10;70.40;;;;;;5054394;28;20079;-52
2022/03/19 10:49:03;;;;;;;1.83;0.80;;;12.00;69.10;;;;;;5054385;28;20021;-50
2022/03/19 10:51:30;;;;;;;3.42;1.33;;;11.90;69.70;;;;;;5053093;28;20021;-54
2022/03/19 10:53:57;;;;;;;2.72;0.80;;;11.80;69.70;;;;;;5053285;28;20021;-52
2022/03/19 10:56:23;;;;;;;1.58;0.95;;;11.80;69.30;;;;;;5054158;28;20451;-55
2022/03/19 10:58:49;;;;;;;1.52;0.80;;;12.00;69.10;;;;;;5054221;28;20021;-52
2022/03/19 11:01:16;;;;;;;3.20;0.80;;;11.80;68.70;;;;;;5054219;28;20165;-51
2022/03/19 11:03:45;;;;;;;2.58;0.73;;;11.90;69.70;;;;;;5054133;28;20031;-52
2022/03/19 11:06:11;;;;;;;1.95;0.80;;;11.90;68.70;;;;;;5052739;28;20175;-50
2022/03/19 11:08:41;;;;;;;3.40;0.82;;;11.80;69.10;;;;;;5053950;28;20094;-53
2022/03/19 11:11:42;;;;;;;2.88;0.57;;;11.70;68.90;;;;;;5053968;28;20114;-52
2022/03/19 11:14:10;;;;;;;2.20;0.70;;;11.60;67.10;;;;;;5053971;28;20017;-56
2022/03/19 11:16:37;;;;;;;3.08;0.82;;;11.70;69.30;;;;;;5052946;28;20021;-54
2022/03/19 11:19:04;;;;;;;2.35;0.50;;;11.50;65.40;;;;;;5053849;28;20021;-50
2022/03/19 11:21:31;;;;;;;3.67;1.30;;;11.40;66.10;;;;;;5054278;28;20528;-54
2022/03/19 11:24:09;;;;;;;2.33;0.88;;;11.40;66.50;;;;;;5052506;28;20039;-53
2022/03/19 11:26:35;;;;;;;1.40;0.60;;;11.40;67.10;;;;;;5052939;28;20028;-54
2022/03/19 11:29:01;;;;;;;2.97;1.15;;;11.40;66.60;;;;;;5053411;28;20056;-54
2022/03/19 11:31:29;;;;;;;3.03;0.85;;;11.40;68.10;;;;;;5055599;28;20067;-55
2022/03/19 11:34:01;;;;;;;3.40;0.77;;;11.40;66.20;;;;;;5055561;28;20024;-56
2022/03/19 11:36:27;;;;;;;5.25;0.65;;;11.30;66.20;;;;;;5055289;28;20031;-60
2022/03/19 11:38:54;;;;;;;2.58;0.60;;;11.30;65.50;;;;;;5054532;28;20108;-56
2022/03/19 11:41:23;;;;;;;2.90;0.70;;;11.30;67.30;;;;;;5055521;28;20025;-56
2022/03/19 11:43:50;;;;;;;3.72;0.70;;;11.30;67.00;;;;;;5055745;28;20021;-56
2022/03/19 11:46:17;;;;;;;3.08;0.70;;;11.30;67.50;;;;;;5054863;28;20024;-54
2022/03/19 11:48:47;;;;;;;1.48;0.60;;;11.40;67.80;;;;;;5055069;28;20463;-55
2022/03/19 11:51:25;;;;;;;3.03;0.73;;;11.30;68.00;;;;;;5052645;28;20029;-51
2022/03/19 11:54:12;;;;;;;3.45;0.73;;;11.30;68.40;;;;;;5054775;28;20021;-49
2022/03/19 11:56:41;;;;;;;6.43;0.93;;;11.40;68.70;;;;;;5058175;28;20013;-57
2022/03/19 11:59:47;;;;;;;3.22;0.65;;;11.20;68.30;;;;;;5054555;28;20036;-57
2022/03/19 12:02:14;;;;;;;2.15;0.80;;;11.10;69.50;;;;;;5055222;28;20033;-56
2022/03/19 12:04:51;;;;;;;2.80;0.70;;;11.20;69.90;;;;;;5054458;28;20025;-56
2022/03/19 12:07:57;;;;;;;3.65;0.80;;;11.10;68.70;;;;;;5054659;28;20028;-55
2022/03/19 12:10:31;;;;;;;3.10;1.15;;;11.10;70.60;;;;;;5016379;28;20511;-57
2022/03/19 12:12:57;;;;;;;2.67;0.60;;;11.20;71.10;;;;;;5017398;28;20033;-57
2022/03/19 12:15:32;;;;;;;3.63;1.33;;;11.10;70.30;;;;;;5035543;28;20029;-56
2022/03/19 12:18:41;;;;;;;3.63;0.82;;;11.00;71.10;;;;;;5054405;28;20025;-57
2022/03/19 12:21:10;;;;;;;2.78;0.77;;;11.00;73.00;;;;;;5052553;28;20091;-57
2022/03/19 12:23:49;;;;;;;2.50;0.60;;;10.90;72.30;;;;;;5055082;28;20028;-57
2022/03/19 12:26:16;;;;;;;5.30;0.88;;;11.00;74.20;;;;;;5055704;28;20024;-57
2022/03/19 12:28:43;;;;;;;1.00;0.82;;;11.00;74.10;;;;;;5054228;28;20057;-56
2022/03/19 12:31:15;;;;;;;3.17;0.90;;;11.00;74.00;;;;;;5055015;28;20028;-59
2022/03/19 12:33:43;;;;;;;2.33;0.90;;;11.00;74.60;;;;;;5055264;28;20048;-57
2022/03/19 12:36:21;;;;;;;2.95;1.08;;;11.00;74.30;;;;;;5053917;28;20033;-58
2022/03/19 12:38:52;;;;;;;3.05;1.13;;;10.90;72.70;;;;;;5054857;28;20021;-54
2022/03/19 12:41:30;;;;;;;3.70;0.93;;;10.90;73.70;;;;;;5053832;28;20028;-55
2022/03/19 12:44:01;;;;;;;3.58;0.70;;;10.90;74.00;;;;;;5053969;28;20032;-57
2022/03/19 12:46:30;;;;;;;1.00;0.70;;;10.80;73.50;;;;;;5053995;28;20025;-56
2022/03/19 12:49:06;;;;;;;3.33;0.80;;;10.70;74.40;;;;;;5054934;28;20025;-57
2022/03/19 12:51:32;;;;;;;3.40;0.65;;;10.70;72.90;;;;;;5053732;28;20021;-56
2022/03/19 12:53:58;;;;;;;3.60;1.00;;;10.80;73.30;;;;;;5054187;28;20024;-60
2022/03/19 12:56:29;;;;;;;3.90;1.27;;;10.70;73.90;;;;;;5054172;28;20029;-57
2022/03/19 12:58:57;;;;;;;2.78;0.75;;;10.80;75.00;;;;;;5057803;28;20021;-58
2022/03/19 13:01:25;;;;;;;3.80;1.25;;;10.80;73.50;;;;;;5057705;28;20043;-56
2022/03/19 13:03:58;;;;;;;3.78;1.15;;;10.80;75.00;;;;;;5057796;28;20041;-57
2022/03/19 13:06:29;;;;;;;8.27;1.20;;;10.90;75.40;;;;;;5056272;28;20025;-57